Time;durP1;ratioP1;P1;durP2;ratioP2;P2;SDS_P1;SDS_P2;PMS_P1;PMS_P2;Temp;Humidity;BMP_temperature;BMP_pressure;BME280_temperature;BME280_humidity;BME280_pressure;Samples;Min_cycle;Max_cycle;Signal;HPM_P1;HPM_P2
2023/03/18 00:01:33;;;;;;;17.67;12.73;;;10.90;99.90;;;;;;4980590;28;20168;-63
2023/03/18 00:04:00;;;;;;;18.35;12.05;;;10.90;99.90;;;;;;4991404;28;20099;-63
2023/03/18 00:06:26;;;;;;;16.15;12.32;;;10.90;99.90;;;;;;4991631;28;20062;-64
2023/03/18 00:08:51;;;;;;;18.63;12.20;;;10.90;99.90;;;;;;4976216;28;20572;-65
2023/03/18 00:11:20;;;;;;;17.60;12.10;;;11.00;99.90;;;;;;4977687;28;20046;-63
2023/03/18 00:13:46;;;;;;;19.92;12.32;;;11.00;99.90;;;;;;4978401;28;20236;-64
2023/03/18 00:16:13;;;;;;;15.10;10.90;;;11.00;99.90;;;;;;4992468;28;20046;-63
2023/03/18 00:18:40;;;;;;;15.57;12.15;;;11.00;99.90;;;;;;4977935;28;21242;-64
2023/03/18 00:21:07;;;;;;;15.23;11.73;;;11.00;99.90;;;;;;4974998;28;20042;-63
2023/03/18 00:23:33;;;;;;;17.60;11.98;;;11.00;99.90;;;;;;4978082;28;20484;-63
2023/03/18 00:26:00;;;;;;;15.68;11.73;;;11.00;99.90;;;;;;4990023;28;20050;-64
2023/03/18 00:28:27;;;;;;;16.65;11.82;;;11.00;99.90;;;;;;4993825;28;20157;-63
2023/03/18 00:30:55;;;;;;;15.90;11.48;;;11.00;99.90;;;;;;4973742;28;20034;-63
2023/03/18 00:33:22;;;;;;;15.40;11.88;;;10.90;99.90;;;;;;4978720;28;20126;-63
2023/03/18 00:35:48;;;;;;;18.30;11.68;;;10.90;99.90;;;;;;4960369;28;20495;-63
2023/03/18 00:38:19;;;;;;;17.38;11.38;;;10.90;99.90;;;;;;5007404;28;20049;-65
2023/03/18 00:41:00;;;;;;;15.75;11.10;;;10.80;99.90;;;;;;4976841;28;20180;-62
2023/03/18 00:43:28;;;;;;;17.95;11.45;;;10.80;99.90;;;;;;4991974;28;20055;-64
2023/03/18 00:45:57;;;;;;;15.57;11.48;;;10.80;99.90;;;;;;5007571;28;20535;-63
2023/03/18 00:48:24;;;;;;;13.30;10.90;;;10.80;99.90;;;;;;4976847;28;20041;-64
2023/03/18 00:50:49;;;;;;;17.25;11.73;;;10.80;99.90;;;;;;5008554;28;20333;-64
2023/03/18 00:53:16;;;;;;;18.65;11.70;;;10.80;99.90;;;;;;4994674;28;20049;-64
2023/03/18 00:55:42;;;;;;;16.42;11.27;;;10.70;99.90;;;;;;5009647;28;20037;-64
2023/03/18 00:58:11;;;;;;;17.05;10.90;;;10.80;99.90;;;;;;4995403;28;20056;-64
2023/03/18 01:00:38;;;;;;;15.80;11.30;;;10.70;99.90;;;;;;4982759;28;20034;-62
2023/03/18 01:03:05;;;;;;;15.57;10.43;;;10.80;99.90;;;;;;4997385;28;20089;-63
2023/03/18 01:05:32;;;;;;;14.93;10.10;;;10.80;99.90;;;;;;5013226;28;20088;-63
2023/03/18 01:07:59;;;;;;;17.98;10.95;;;10.80;99.90;;;;;;4964405;28;20049;-63
2023/03/18 01:10:26;;;;;;;14.27;10.68;;;10.70;99.90;;;;;;4981023;28;20034;-65
2023/03/18 01:12:52;;;;;;;13.20;10.40;;;10.80;99.90;;;;;;4978264;28;20077;-63
2023/03/18 01:15:20;;;;;;;14.30;9.45;;;10.80;99.90;;;;;;4978853;28;20317;-64
2023/03/18 01:17:47;;;;;;;12.65;9.77;;;10.80;99.90;;;;;;4980428;28;21181;-64
2023/03/18 01:20:16;;;;;;;15.23;9.95;;;10.80;99.90;;;;;;4980744;28;20706;-64
2023/03/18 01:22:42;;;;;;;13.95;10.35;;;10.70;99.90;;;;;;4980011;28;20038;-64
2023/03/18 01:25:10;;;;;;;15.32;10.32;;;10.70;99.90;;;;;;4994668;28;20038;-64
2023/03/18 01:27:36;;;;;;;12.07;9.25;;;10.70;99.90;;;;;;4980733;28;20042;-64
2023/03/18 01:30:04;;;;;;;14.93;9.32;;;10.60;99.90;;;;;;5010613;28;20121;-63
2023/03/18 01:32:30;;;;;;;16.40;10.35;;;10.50;99.90;;;;;;4978631;28;20676;-64
2023/03/18 01:34:57;;;;;;;14.77;9.70;;;10.40;99.90;;;;;;5010154;28;20504;-63
2023/03/18 01:37:22;;;;;;;14.40;9.90;;;10.40;99.90;;;;;;4995471;28;20056;-64
2023/03/18 01:39:48;;;;;;;16.10;10.27;;;10.30;99.90;;;;;;5008261;28;20070;-64
2023/03/18 01:42:16;;;;;;;16.20;9.75;;;10.20;99.90;;;;;;4976899;28;20392;-65
2023/03/18 01:44:45;;;;;;;13.05;10.25;;;10.10;99.90;;;;;;4980492;28;20608;-65
2023/03/18 01:47:11;;;;;;;13.43;10.13;;;10.00;99.90;;;;;;5008936;28;20741;-64
2023/03/18 01:49:49;;;;;;;16.15;10.88;;;9.90;99.90;;;;;;4983612;28;20030;-65
2023/03/18 01:52:19;;;;;;;16.27;10.85;;;9.80;99.90;;;;;;4977467;28;20034;-64
2023/03/18 01:55:07;;;;;;;16.15;10.57;;;9.70;99.90;;;;;;4990713;28;20046;-64
2023/03/18 01:57:34;;;;;;;14.77;10.45;;;9.60;99.90;;;;;;4982143;28;20331;-64
2023/03/18 02:00:01;;;;;;;14.32;11.25;;;9.50;99.90;;;;;;4977227;28;20053;-65
2023/03/18 02:02:28;;;;;;;16.95;11.85;;;9.40;99.90;;;;;;5010660;28;20270;-65
2023/03/18 02:04:56;;;;;;;16.85;11.43;;;9.30;99.90;;;;;;4977931;28;20056;-65
2023/03/18 02:07:32;;;;;;;18.73;12.20;;;9.20;99.90;;;;;;5009887;28;20037;-63
2023/03/18 02:10:09;;;;;;;17.02;12.27;;;9.10;99.90;;;;;;4990546;28;20042;-63
2023/03/18 02:12:40;;;;;;;17.30;12.40;;;9.10;99.90;;;;;;4977648;28;20045;-64
2023/03/18 02:15:10;;;;;;;19.48;12.70;;;9.00;99.90;;;;;;5009395;28;20369;-64
2023/03/18 02:17:53;;;;;;;18.80;12.73;;;9.00;99.90;;;;;;4979637;28;20468;-64
2023/03/18 02:20:39;;;;;;;17.13;13.90;;;9.00;99.90;;;;;;4994348;28;20046;-63
2023/03/18 02:23:30;;;;;;;23.35;14.82;;;9.00;99.90;;;;;;5009736;28;20628;-63
2023/03/18 02:26:23;;;;;;;20.65;15.20;;;9.00;99.90;;;;;;4976743;28;20050;-64
2023/03/18 02:28:52;;;;;;;19.58;15.32;;;9.00;1.00;;;;;;4982359;28;20125;-62
2023/03/18 02:31:19;;;;;;;18.27;15.73;;;9.00;1.00;;;;;;5008914;28;20559;-64
2023/03/18 02:33:46;;;;;;;22.98;17.40;;;9.00;1.00;;;;;;4977122;28;20145;-63
2023/03/18 02:36:27;;;;;;;22.42;16.35;;;9.10;1.00;;;;;;4964348;28;20034;-64
2023/03/18 02:38:53;;;;;;;23.58;17.10;;;9.10;1.00;;;;;;4978575;28;20125;-65
2023/03/18 02:41:22;;;;;;;23.02;18.58;;;9.10;1.00;;;;;;4995048;28;20672;-66
2023/03/18 02:43:49;;;;;;;21.15;17.23;;;9.10;1.00;;;;;;4959786;28;20137;-64
2023/03/18 02:46:48;;;;;;;23.40;18.25;;;9.00;1.00;;;;;;4976524;28;20527;-65
2023/03/18 02:49:16;;;;;;;23.60;18.30;;;9.10;1.00;;;;;;4992246;28;20125;-65
2023/03/18 02:51:42;;;;;;;27.75;19.20;;;9.10;1.00;;;;;;4978294;28;20281;-64
2023/03/18 02:54:11;;;;;;;24.50;19.13;;;9.00;1.00;;;;;;5007810;28;20346;-64
2023/03/18 02:56:39;;;;;;;28.52;20.20;;;9.00;1.00;;;;;;4992924;28;20041;-64
2023/03/18 02:59:04;;;;;;;28.33;21.77;;;8.90;1.00;;;;;;4977273;28;20038;-65
2023/03/18 03:01:32;;;;;;;29.38;22.17;;;8.90;1.00;;;;;;4978069;28;20068;-65
2023/03/18 03:03:58;;;;;;;27.10;22.45;;;8.90;1.00;;;;;;4980456;28;20046;-65
2023/03/18 03:06:24;;;;;;;33.85;23.98;;;8.80;1.00;;;;;;4978483;28;20103;-64
2023/03/18 03:08:51;;;;;;;28.25;23.23;;;8.80;1.00;;;;;;5008403;28;20204;-65
2023/03/18 03:11:18;;;;;;;32.53;24.80;;;8.80;1.00;;;;;;4992195;28;20048;-64
2023/03/18 03:13:44;;;;;;;35.50;27.17;;;8.80;1.00;;;;;;4977850;28;20038;-67
2023/03/18 03:16:15;;;;;;;31.70;25.40;;;8.80;1.00;;;;;;4977573;28;20166;-65
2023/03/18 03:18:42;;;;;;;31.50;26.23;;;8.70;1.00;;;;;;5009958;28;20079;-64
2023/03/18 03:21:08;;;;;;;33.63;27.77;;;8.70;1.00;;;;;;5008381;28;20553;-64
2023/03/18 03:23:36;;;;;;;33.70;28.30;;;8.80;2.10;;;;;;4995211;28;20099;-65
2023/03/18 03:26:03;;;;;;;34.88;29.13;;;8.70;5.60;;;;;;5007194;28;20042;-65
2023/03/18 03:28:31;;;;;;;39.80;30.85;;;8.80;22.30;;;;;;4978829;28;20029;-65
2023/03/18 03:30:57;;;;;;;39.60;31.00;;;8.80;41.80;;;;;;4978447;28;20337;-65
2023/03/18 03:33:22;;;;;;;39.40;31.17;;;8.80;42.20;;;;;;4978489;28;20050;-65
2023/03/18 03:35:48;;;;;;;36.63;31.00;;;8.70;48.70;;;;;;4977620;28;20236;-65
2023/03/18 03:38:15;;;;;;;37.33;32.13;;;8.80;57.70;;;;;;4976121;28;20111;-64
2023/03/18 03:40:40;;;;;;;35.58;30.83;;;8.70;67.00;;;;;;5008255;28;20045;-64
2023/03/18 03:43:06;;;;;;;40.50;32.92;;;8.70;72.80;;;;;;4991266;28;20054;-63
2023/03/18 03:45:32;;;;;;;38.03;31.98;;;8.70;80.60;;;;;;4977483;28;20511;-65
2023/03/18 03:47:59;;;;;;;37.42;32.03;;;8.60;83.70;;;;;;5007363;28;20085;-65
2023/03/18 03:50:25;;;;;;;40.58;33.58;;;8.60;91.70;;;;;;5007476;28;20097;-64
2023/03/18 03:52:51;;;;;;;42.47;34.05;;;8.60;95.60;;;;;;4977333;28;20555;-64
2023/03/18 03:55:20;;;;;;;44.45;34.67;;;8.50;99.90;;;;;;4979036;28;20087;-64
2023/03/18 03:57:46;;;;;;;42.05;35.28;;;8.50;99.90;;;;;;4977658;28;20061;-65
2023/03/18 04:00:17;;;;;;;42.65;35.60;;;8.50;99.90;;;;;;4976162;28;20151;-65
2023/03/18 04:02:44;;;;;;;41.78;36.72;;;8.40;99.90;;;;;;4977909;28;20045;-64
2023/03/18 04:05:11;;;;;;;46.25;37.88;;;8.40;99.90;;;;;;4978531;28;20046;-64
2023/03/18 04:07:38;;;;;;;46.60;39.00;;;8.40;99.90;;;;;;4993828;28;20522;-66
2023/03/18 04:10:05;;;;;;;45.05;39.33;;;8.30;99.90;;;;;;4975099;28;20712;-63
2023/03/18 04:12:31;;;;;;;45.53;39.03;;;8.20;99.90;;;;;;4977071;28;20436;-64
2023/03/18 04:14:56;;;;;;;50.55;40.50;;;8.20;99.90;;;;;;4974557;28;20042;-64
2023/03/18 04:17:22;;;;;;;49.85;40.97;;;8.20;99.90;;;;;;4992977;28;20370;-65
2023/03/18 04:19:48;;;;;;;47.20;41.47;;;8.20;99.90;;;;;;4992096;28;20045;-64
2023/03/18 04:22:15;;;;;;;51.15;43.15;;;8.20;99.90;;;;;;4958090;28;20039;-64
2023/03/18 04:24:41;;;;;;;54.88;43.65;;;8.20;99.90;;;;;;4976376;28;20490;-64
2023/03/18 04:27:07;;;;;;;61.03;45.90;;;8.30;99.90;;;;;;4976143;28;20615;-64
2023/03/18 04:29:33;;;;;;;59.17;46.83;;;8.30;99.90;;;;;;4962702;28;20304;-63
2023/03/18 04:31:58;;;;;;;60.95;48.03;;;8.30;99.90;;;;;;4976060;28;20041;-63
2023/03/18 04:34:24;;;;;;;60.53;47.03;;;8.30;99.90;;;;;;4981716;28;20047;-63
2023/03/18 04:36:50;;;;;;;58.42;48.38;;;8.40;99.90;;;;;;4982762;28;20042;-64
2023/03/18 04:39:16;;;;;;;57.13;47.80;;;8.40;99.90;;;;;;4982280;28;20048;-64
2023/03/18 04:41:42;;;;;;;58.38;47.25;;;8.40;99.90;;;;;;4965792;28;20038;-63
2023/03/18 04:44:08;;;;;;;57.08;48.08;;;8.40;99.90;;;;;;4967555;28;20477;-64
2023/03/18 04:46:34;;;;;;;60.17;48.40;;;8.40;99.90;;;;;;4983692;28;20104;-64
2023/03/18 04:49:00;;;;;;;59.65;48.55;;;8.40;99.90;;;;;;4966990;28;20038;-64
2023/03/18 04:51:26;;;;;;;62.50;49.70;;;8.40;99.90;;;;;;5015029;28;20108;-64
2023/03/18 04:53:52;;;;;;;61.03;49.78;;;8.30;99.90;;;;;;5001970;28;20523;-64
2023/03/18 04:56:18;;;;;;;61.88;50.05;;;8.30;99.90;;;;;;5015351;28;20351;-64
2023/03/18 04:58:45;;;;;;;64.55;50.10;;;8.20;99.90;;;;;;4985343;28;20079;-62
2023/03/18 05:01:12;;;;;;;65.10;51.25;;;8.30;99.90;;;;;;4987003;28;20049;-62
2023/03/18 05:03:38;;;;;;;59.85;50.53;;;8.20;99.90;;;;;;5017474;28;20342;-64
2023/03/18 05:06:05;;;;;;;60.42;49.45;;;8.30;99.90;;;;;;4985975;28;20412;-64
2023/03/18 05:08:31;;;;;;;61.00;49.90;;;8.20;99.90;;;;;;4985726;28;20113;-63
2023/03/18 05:10:57;;;;;;;64.75;51.20;;;8.10;99.90;;;;;;5001432;28;20302;-64
2023/03/18 05:13:22;;;;;;;59.92;49.67;;;8.10;99.90;;;;;;4983043;28;20238;-64
2023/03/18 05:15:48;;;;;;;68.40;52.28;;;8.20;99.90;;;;;;4984068;28;20955;-63
2023/03/18 05:18:15;;;;;;;65.75;51.28;;;8.20;99.90;;;;;;4983383;28;20080;-64
2023/03/18 05:20:41;;;;;;;62.25;51.25;;;8.20;99.90;;;;;;4987581;28;20050;-64
2023/03/18 05:23:07;;;;;;;67.72;52.25;;;8.10;99.90;;;;;;5015587;28;20131;-63
2023/03/18 05:25:33;;;;;;;63.55;50.65;;;8.20;99.90;;;;;;4984305;28;20042;-63
2023/03/18 05:27:59;;;;;;;62.50;51.28;;;8.00;99.90;;;;;;4995651;28;20472;-63
2023/03/18 05:30:26;;;;;;;68.72;52.70;;;8.20;99.90;;;;;;5000672;28;20116;-64
2023/03/18 05:32:52;;;;;;;64.43;51.42;;;8.10;99.90;;;;;;5016357;28;20042;-63
2023/03/18 05:35:18;;;;;;;65.38;51.25;;;8.10;99.90;;;;;;4984764;28;20257;-63
2023/03/18 05:37:44;;;;;;;66.25;52.92;;;8.00;99.90;;;;;;4982887;28;20491;-64
2023/03/18 05:40:11;;;;;;;73.03;55.40;;;8.10;99.90;;;;;;4982921;28;20066;-63
2023/03/18 05:42:39;;;;;;;69.18;54.75;;;7.90;99.90;;;;;;5000905;28;20216;-63
2023/03/18 05:45:06;;;;;;;67.00;54.22;;;7.90;99.90;;;;;;4979439;28;20360;-64
2023/03/18 05:47:32;;;;;;;68.60;54.80;;;8.10;99.90;;;;;;4980385;28;20038;-63
2023/03/18 05:49:58;;;;;;;71.18;56.80;;;8.20;99.90;;;;;;4981166;28;20147;-63
2023/03/18 05:52:24;;;;;;;72.00;55.38;;;8.10;99.90;;;;;;4996610;28;20685;-66
2023/03/18 05:54:50;;;;;;;69.28;57.22;;;8.40;99.90;;;;;;4979479;28;20426;-65
2023/03/18 05:57:16;;;;;;;72.22;54.90;;;8.40;99.90;;;;;;4978595;28;20049;-65
2023/03/18 05:59:42;;;;;;;72.05;53.75;;;8.50;99.90;;;;;;4979448;28;20040;-65
2023/03/18 06:02:08;;;;;;;64.18;54.38;;;8.70;99.90;;;;;;4977779;28;20073;-65
2023/03/18 06:04:34;;;;;;;65.95;51.90;;;8.60;99.90;;;;;;4980106;28;20180;-64
2023/03/18 06:07:02;;;;;;;67.97;51.78;;;8.70;99.90;;;;;;4979756;28;20136;-64
2023/03/18 06:09:29;;;;;;;61.53;52.20;;;8.80;99.90;;;;;;4977935;28;20057;-65
2023/03/18 06:11:56;;;;;;;62.42;52.17;;;8.90;99.90;;;;;;4979887;28;20057;-65
2023/03/18 06:14:21;;;;;;;61.03;50.00;;;8.70;99.90;;;;;;5010295;28;20046;-66
2023/03/18 06:16:47;;;;;;;58.97;47.17;;;9.00;99.90;;;;;;4994992;28;20089;-64
2023/03/18 06:19:13;;;;;;;55.45;46.67;;;9.00;99.90;;;;;;4977511;28;20112;-65
2023/03/18 06:21:39;;;;;;;56.25;46.80;;;9.00;99.90;;;;;;4995127;28;20069;-65
2023/03/18 06:24:06;;;;;;;55.40;44.90;;;8.90;99.90;;;;;;4980083;28;20070;-65
2023/03/18 06:26:32;;;;;;;54.80;45.03;;;8.90;99.90;;;;;;4994919;28;20046;-65
2023/03/18 06:28:57;;;;;;;56.53;46.20;;;9.10;99.90;;;;;;4991971;28;20309;-65
2023/03/18 06:31:24;;;;;;;52.47;43.85;;;9.20;99.90;;;;;;4961008;28;20034;-64
2023/03/18 06:33:50;;;;;;;61.67;47.38;;;9.10;99.90;;;;;;4978712;28;20042;-66
2023/03/18 06:36:16;;;;;;;56.58;44.63;;;9.20;99.90;;;;;;5000656;28;20524;-64
2023/03/18 06:38:43;;;;;;;54.03;43.85;;;9.00;99.90;;;;;;4979858;28;20119;-65
2023/03/18 06:41:10;;;;;;;55.25;42.85;;;9.10;99.90;;;;;;4979622;28;20127;-66
2023/03/18 06:43:37;;;;;;;55.05;42.05;;;9.10;99.90;;;;;;5009741;28;20053;-65
2023/03/18 06:46:03;;;;;;;50.78;43.65;;;9.10;99.90;;;;;;5008036;28;20057;-66
2023/03/18 06:48:29;;;;;;;50.38;39.78;;;9.10;99.90;;;;;;4980673;28;20054;-65
2023/03/18 06:50:55;;;;;;;54.13;39.67;;;9.30;99.90;;;;;;4978587;28;20115;-64
2023/03/18 06:53:21;;;;;;;52.38;39.50;;;9.30;99.90;;;;;;4978351;28;20034;-65
2023/03/18 06:55:47;;;;;;;54.95;39.42;;;9.50;99.90;;;;;;4993783;28;20053;-65
2023/03/18 06:58:13;;;;;;;51.38;38.60;;;9.30;99.90;;;;;;4976558;28;20049;-65
2023/03/18 07:00:41;;;;;;;48.95;40.00;;;9.50;99.90;;;;;;4978866;28;20042;-64
2023/03/18 07:03:06;;;;;;;48.28;38.55;;;9.50;99.90;;;;;;5007505;28;20217;-64
2023/03/18 07:05:32;;;;;;;49.38;38.45;;;9.50;99.90;;;;;;4976237;28;20260;-65
2023/03/18 07:07:58;;;;;;;52.75;40.47;;;9.60;99.90;;;;;;4978175;28;20341;-65
2023/03/18 07:10:26;;;;;;;51.97;39.38;;;9.60;99.90;;;;;;4978275;28;20932;-65
2023/03/18 07:12:53;;;;;;;52.22;39.17;;;9.70;99.90;;;;;;4978559;28;20050;-64
2023/03/18 07:15:21;;;;;;;53.47;37.97;;;9.60;99.90;;;;;;4977355;28;20041;-65
2023/03/18 07:17:47;;;;;;;51.03;39.72;;;9.60;99.90;;;;;;4979317;28;20038;-65
2023/03/18 07:20:14;;;;;;;54.50;39.75;;;9.60;99.90;;;;;;4981200;28;20128;-65
2023/03/18 07:22:41;;;;;;;55.55;39.55;;;9.80;99.90;;;;;;4977773;28;21289;-65
2023/03/18 07:25:07;;;;;;;55.33;39.40;;;9.70;99.90;;;;;;4974387;28;20492;-66
2023/03/18 07:27:33;;;;;;;50.25;38.85;;;9.70;99.90;;;;;;4988584;28;20611;-65
2023/03/18 07:30:00;;;;;;;51.95;39.22;;;9.90;99.90;;;;;;4989487;28;20049;-64
2023/03/18 07:32:26;;;;;;;53.13;38.60;;;9.80;99.90;;;;;;4989933;28;20547;-64
2023/03/18 07:34:52;;;;;;;53.17;39.28;;;9.80;99.90;;;;;;4973581;28;20352;-64
2023/03/18 07:37:17;;;;;;;47.00;36.53;;;10.10;1.00;;;;;;4973628;28;20054;-63
2023/03/18 07:39:43;;;;;;;48.42;36.20;;;10.40;1.00;;;;;;4974928;28;20042;-65
2023/03/18 07:42:09;;;;;;;42.92;36.05;;;10.60;1.00;;;;;;5005483;28;20046;-66
2023/03/18 07:44:36;;;;;;;43.67;34.20;;;10.80;99.90;;;;;;4974322;28;20137;-64
2023/03/18 07:47:03;;;;;;;45.72;34.38;;;11.00;99.90;;;;;;4993735;28;20053;-65
2023/03/18 07:49:29;;;;;;;40.70;31.50;;;11.30;99.90;;;;;;5007856;28;20050;-65
2023/03/18 07:51:55;;;;;;;39.15;30.98;;;11.70;99.90;;;;;;4978791;28;20039;-65
2023/03/18 07:54:22;;;;;;;40.85;32.28;;;11.90;99.90;;;;;;4992995;28;20128;-65
2023/03/18 07:56:48;;;;;;;37.75;30.23;;;12.50;99.90;;;;;;4980481;28;20050;-64
2023/03/18 07:59:14;;;;;;;35.13;29.25;;;13.20;99.90;;;;;;4979208;28;20491;-64
2023/03/18 08:01:40;;;;;;;37.65;29.27;;;13.70;99.90;;;;;;5007145;28;20218;-64
2023/03/18 08:04:07;;;;;;;32.85;28.13;;;14.10;53.70;;;;;;4978026;28;20396;-63
2023/03/18 08:06:33;;;;;;;34.25;29.10;;;13.80;1.00;;;;;;5008258;28;20555;-64
2023/03/18 08:08:59;;;;;;;34.10;28.77;;;13.50;1.00;;;;;;4982510;28;20050;-63
2023/03/18 08:11:25;;;;;;;31.60;26.10;;;13.20;1.00;;;;;;4978151;28;20160;-63
2023/03/18 08:13:51;;;;;;;32.70;27.38;;;12.80;1.00;;;;;;4996259;28;20400;-64
2023/03/18 08:16:17;;;;;;;32.13;26.52;;;12.50;1.00;;;;;;4993612;28;20046;-64
2023/03/18 08:18:43;;;;;;;35.00;27.88;;;12.30;1.00;;;;;;4979551;28;20034;-67
2023/03/18 08:21:09;;;;;;;33.63;27.67;;;12.20;1.00;;;;;;4960952;28;20125;-64
2023/03/18 08:23:36;;;;;;;30.13;26.88;;;12.10;1.00;;;;;;4975118;28;20046;-65
2023/03/18 08:26:02;;;;;;;30.60;27.10;;;12.10;1.00;;;;;;4991009;28;20046;-66
2023/03/18 08:28:28;;;;;;;33.92;26.75;;;12.10;1.00;;;;;;4989819;28;20046;-65
2023/03/18 08:30:58;;;;;;;30.95;26.13;;;12.00;1.00;;;;;;4973740;28;20229;-65
2023/03/18 08:33:26;;;;;;;35.40;27.08;;;12.10;1.00;;;;;;4978604;28;20129;-65
2023/03/18 08:35:54;;;;;;;30.15;25.45;;;12.10;1.00;;;;;;5008691;28;20053;-65
2023/03/18 08:38:22;;;;;;;31.48;25.08;;;12.20;1.00;;;;;;4974783;28;20042;-65
2023/03/18 08:40:48;;;;;;;29.83;26.10;;;12.20;1.00;;;;;;4973430;28;20046;-66
2023/03/18 08:43:14;;;;;;;32.08;25.65;;;12.30;1.00;;;;;;5004810;28;20596;-65
2023/03/18 08:45:40;;;;;;;26.77;23.08;;;12.30;1.00;;;;;;4973647;28;20638;-65
2023/03/18 08:48:06;;;;;;;27.17;22.95;;;12.80;98.80;;;;;;4990536;28;20045;-65
2023/03/18 08:50:34;;;;;;;29.92;22.77;;;13.80;68.10;;;;;;4991267;28;20053;-64
2023/03/18 08:53:00;;;;;;;25.55;22.63;;;14.40;1.00;;;;;;5007566;28;20140;-66
2023/03/18 08:55:36;;;;;;;25.30;22.55;;;14.50;99.90;;;;;;4990491;28;20050;-65
2023/03/18 08:58:04;;;;;;;26.77;22.48;;;14.40;99.90;;;;;;4992376;28;20130;-66
2023/03/18 09:00:30;;;;;;;25.92;22.55;;;14.10;99.90;;;;;;4991482;28;20189;-64
2023/03/18 09:02:56;;;;;;;27.58;23.20;;;13.90;99.90;;;;;;4992528;28;20056;-66
2023/03/18 09:05:22;;;;;;;23.88;21.35;;;14.00;99.90;;;;;;5007184;28;20042;-64
2023/03/18 09:07:48;;;;;;;26.23;21.40;;;14.10;99.90;;;;;;4991072;28;20053;-62
2023/03/18 09:10:16;;;;;;;28.63;22.55;;;14.20;99.90;;;;;;4992021;28;20061;-63
2023/03/18 09:12:43;;;;;;;25.08;21.77;;;14.40;99.90;;;;;;4987761;28;20483;-63
2023/03/18 09:15:11;;;;;;;27.50;24.20;;;14.40;99.90;;;;;;4973902;28;20626;-63
2023/03/18 09:17:39;;;;;;;28.95;22.40;;;14.40;99.90;;;;;;4973722;28;20042;-63
2023/03/18 09:20:07;;;;;;;30.40;22.27;;;14.20;99.90;;;;;;5026916;28;20080;-63
2023/03/18 09:22:33;;;;;;;26.88;21.75;;;14.00;99.90;;;;;;4994211;28;20128;-65
2023/03/18 09:24:59;;;;;;;25.80;22.40;;;14.00;99.90;;;;;;5010113;28;20049;-63
2023/03/18 09:27:25;;;;;;;27.77;22.92;;;13.90;99.90;;;;;;4996256;28;20069;-63
2023/03/18 09:29:51;;;;;;;28.17;23.42;;;13.90;99.90;;;;;;4995942;28;20038;-63
2023/03/18 09:32:17;;;;;;;27.13;23.42;;;13.80;99.90;;;;;;4995403;28;20337;-64
2023/03/18 09:34:43;;;;;;;24.45;21.85;;;13.80;99.90;;;;;;5026738;28;20207;-63
2023/03/18 09:37:10;;;;;;;30.58;24.80;;;13.70;99.90;;;;;;4977733;28;20112;-64
2023/03/18 09:39:36;;;;;;;29.42;23.48;;;13.70;99.90;;;;;;4976403;28;20564;-64
2023/03/18 09:42:01;;;;;;;27.08;22.13;;;13.60;99.90;;;;;;4976377;28;20441;-64
2023/03/18 09:44:33;;;;;;;26.08;22.40;;;13.60;99.90;;;;;;5010127;28;20069;-64
2023/03/18 09:47:24;;;;;;;28.58;22.45;;;13.60;99.90;;;;;;4977455;28;20100;-64
2023/03/18 09:50:11;;;;;;;25.85;21.85;;;13.50;99.90;;;;;;5010032;28;20541;-64
2023/03/18 09:53:00;;;;;;;26.73;21.55;;;13.50;99.90;;;;;;4994952;28;20052;-63
2023/03/18 09:55:39;;;;;;;28.42;22.42;;;13.40;99.90;;;;;;4995142;28;20099;-63
2023/03/18 09:58:19;;;;;;;27.08;22.38;;;13.40;99.90;;;;;;4994983;28;20424;-64
2023/03/18 10:00:46;;;;;;;27.58;22.00;;;13.40;99.90;;;;;;5026999;28;20998;-65
2023/03/18 10:03:22;;;;;;;26.50;20.83;;;13.40;99.90;;;;;;5010052;28;20042;-64
2023/03/18 10:05:55;;;;;;;27.85;21.60;;;13.40;99.90;;;;;;4995506;28;20111;-65
2023/03/18 10:08:36;;;;;;;27.77;23.35;;;13.30;99.90;;;;;;4994707;28;20100;-65
2023/03/18 10:11:10;;;;;;;29.83;22.92;;;13.30;99.90;;;;;;4994460;28;20038;-64
2023/03/18 10:13:46;;;;;;;28.30;23.27;;;13.30;99.90;;;;;;4995278;28;20543;-64
2023/03/18 10:16:20;;;;;;;31.15;23.58;;;13.30;99.90;;;;;;4993177;28;20049;-63
2023/03/18 10:18:46;;;;;;;32.30;26.35;;;13.40;99.90;;;;;;4994628;28;20075;-63
2023/03/18 10:21:30;;;;;;;28.98;25.42;;;13.40;99.90;;;;;;5009793;28;20099;-64
2023/03/18 10:24:16;;;;;;;31.02;24.83;;;13.40;99.90;;;;;;4994830;28;20045;-63
2023/03/18 10:26:49;;;;;;;29.13;25.42;;;13.70;99.90;;;;;;4994337;28;20092;-63
2023/03/18 10:29:30;;;;;;;49.58;32.75;;;13.90;99.90;;;;;;4994396;28;20049;-64
2023/03/18 10:32:03;;;;;;;26.92;24.02;;;14.30;99.90;;;;;;4994461;28;20261;-65
2023/03/18 10:34:40;;;;;;;27.40;23.33;;;14.80;99.90;;;;;;4993011;28;20115;-64
2023/03/18 10:37:05;;;;;;;27.95;24.73;;;15.20;99.90;;;;;;4993200;28;20694;-64
2023/03/18 10:39:33;;;;;;;41.60;32.72;;;15.40;99.90;;;;;;4993141;28;20050;-63
2023/03/18 10:42:12;;;;;;;28.70;25.60;;;15.70;99.90;;;;;;5009037;28;20054;-63
2023/03/18 10:44:40;;;;;;;26.73;23.77;;;15.90;99.90;;;;;;4993997;28;20499;-63
2023/03/18 10:47:09;;;;;;;25.83;23.02;;;16.40;99.90;;;;;;4993901;28;20045;-62
2023/03/18 10:49:41;;;;;;;27.23;22.48;;;17.10;99.90;;;;;;4992925;28;20042;-64
2023/03/18 10:52:15;;;;;;;24.30;20.92;;;17.40;99.90;;;;;;4994060;28;20560;-64
2023/03/18 10:54:45;;;;;;;21.50;19.25;;;17.80;99.90;;;;;;5008660;28;20034;-64
2023/03/18 10:57:15;;;;;;;22.00;19.83;;;17.80;99.90;;;;;;4992634;28;20072;-64
2023/03/18 10:59:44;;;;;;;22.88;20.15;;;17.50;99.90;;;;;;4977041;28;20037;-64
2023/03/18 11:02:45;;;;;;;22.60;20.15;;;17.70;99.90;;;;;;5008133;28;20381;-64
2023/03/18 11:05:34;;;;;;;20.45;18.35;;;17.90;99.90;;;;;;4988298;28;20528;-65
2023/03/18 11:08:27;;;;;;;22.08;19.38;;;18.50;99.90;;;;;;4992220;28;20755;-65
2023/03/18 11:10:53;;;;;;;21.05;18.85;;;19.00;99.90;;;;;;4984023;28;20764;-64
2023/03/18 11:13:21;;;;;;;20.52;18.52;;;19.10;99.90;;;;;;4975316;28;20034;-65
2023/03/18 11:15:55;;;;;;;21.00;18.50;;;19.40;99.90;;;;;;4993456;28;20125;-64
2023/03/18 11:18:24;;;;;;;20.60;18.40;;;19.60;48.90;;;;;;4991992;28;20140;-65
2023/03/18 11:20:59;;;;;;;18.10;16.30;;;20.00;78.40;;;;;;4993879;28;20081;-65
2023/03/18 11:24:41;;;;;;;21.02;18.70;;;19.50;1.00;;;;;;4992770;28;20053;-64
2023/03/18 11:26:47;;;;;;;22.50;18.58;;;18.60;17.30;;;;;;4983556;28;20054;-64
2023/03/18 11:29:18;;;;;;;20.42;16.58;;;18.60;60.10;;;;;;5025338;28;20503;-64
2023/03/18 11:31:50;;;;;;;19.15;16.35;;;19.10;60.20;;;;;;4991512;28;20129;-64
2023/03/18 11:34:20;;;;;;;18.35;16.45;;;19.10;5.10;;;;;;4991645;28;20064;-65
2023/03/18 11:37:10;;;;;;;17.75;15.35;;;19.00;18.40;;;;;;4997453;28;20041;-63
2023/03/18 11:39:39;;;;;;;16.48;14.25;;;19.00;1.00;;;;;;5012924;28;20438;-62
2023/03/18 11:42:19;;;;;;;14.93;13.32;;;19.00;1.00;;;;;;5012531;28;20088;-62
2023/03/18 11:44:45;;;;;;;15.07;13.48;;;18.50;1.00;;;;;;4993505;28;20248;-64
2023/03/18 11:47:37;;;;;;;14.77;13.07;;;18.70;1.00;;;;;;4993080;28;20046;-64
2023/03/18 11:50:04;;;;;;;14.30;12.82;;;19.40;1.00;;;;;;5008193;28;20583;-64
2023/03/18 11:52:51;;;;;;;15.95;12.82;;;19.30;1.00;;;;;;4993400;28;20548;-64
2023/03/18 11:55:40;;;;;;;15.07;12.98;;;19.10;1.00;;;;;;5007986;28;20184;-65
2023/03/18 11:58:07;;;;;;;11.90;10.80;;;19.50;1.00;;;;;;5008336;28;20491;-66
2023/03/18 12:00:54;;;;;;;9.02;7.63;;;20.20;1.00;;;;;;4992909;28;20041;-66
2023/03/18 12:03:51;;;;;;;10.00;8.55;;;20.30;99.90;;;;;;4993203;28;20205;-67
2023/03/18 12:06:20;;;;;;;9.73;8.73;;;20.00;99.90;;;;;;4993588;28;20080;-66
2023/03/18 12:09:07;;;;;;;10.23;8.70;;;19.00;99.90;;;;;;4991773;28;20744;-65
2023/03/18 12:11:54;;;;;;;11.35;10.02;;;18.20;1.00;;;;;;4993257;28;20501;-65
2023/03/18 12:14:44;;;;;;;13.05;10.38;;;17.60;1.00;;;;;;4992960;28;20037;-64
2023/03/18 12:17:55;;;;;;;13.88;12.02;;;17.20;1.00;;;;;;4975206;28;20424;-64
2023/03/18 12:20:45;;;;;;;16.20;13.02;;;16.90;1.00;;;;;;4986614;28;20057;-64
2023/03/18 12:23:40;;;;;;;14.48;13.00;;;16.60;52.50;;;;;;4991253;28;20056;-64
2023/03/18 12:26:29;;;;;;;17.50;14.68;;;16.20;96.20;;;;;;4991753;28;20046;-66
2023/03/18 12:28:57;;;;;;;17.45;14.20;;;16.00;99.90;;;;;;5007846;28;20408;-66
2023/03/18 12:31:58;;;;;;;18.50;16.50;;;15.80;99.90;;;;;;4974413;28;20528;-64
2023/03/18 12:35:15;;;;;;;19.90;17.23;;;15.80;99.90;;;;;;5009946;28;20049;-63
2023/03/18 12:37:57;;;;;;;20.30;17.58;;;15.80;99.90;;;;;;4964096;28;20334;-63
2023/03/18 12:40:43;;;;;;;18.92;16.80;;;15.90;99.90;;;;;;4994843;28;20046;-63
2023/03/18 12:43:22;;;;;;;21.10;18.20;;;16.00;99.90;;;;;;4991978;28;20064;-65
2023/03/18 12:45:56;;;;;;;20.60;18.15;;;16.20;99.90;;;;;;4979524;28;20778;-65
2023/03/18 12:48:31;;;;;;;20.05;17.98;;;16.30;99.90;;;;;;5009214;28;20447;-64